Time;durP1;ratioP1;P1;durP2;ratioP2;P2;SDS_P1;SDS_P2;PMS_P1;PMS_P2;Temp;Humidity;BMP_temperature;BMP_pressure;BME280_temperature;BME280_humidity;BME280_pressure;Samples;Min_cycle;Max_cycle;Signal;HPM_P1;HPM_P2
2023/12/09 00:09:08;;;;;;;33.2;18.2;;;;;;;-2.34;88.47;;;;;
2023/12/09 00:19:09;;;;;;;33.2;18.2;;;;;;;-2.34;87.01;;;;;
2023/12/09 00:30:08;;;;;;;34.7;18.3;;;;;;;-2.32;87.75;;;;;
2023/12/09 00:40:09;;;;;;;34.7;18.3;;;;;;;-2.37;87.9;;;;;
2023/12/09 00:50:08;;;;;;;34.7;18.3;;;;;;;-2.74;87.47;;;;;
2023/12/09 01:00:08;;;;;;;36.1;19.9;;;;;;;-2.62;87.1;;;;;
2023/12/09 01:11:08;;;;;;;36.1;19.9;;;;;;;-2.48;87.86;;;;;
2023/12/09 01:21:08;;;;;;;36.1;19.9;;;;;;;-2.47;87.13;;;;;
2023/12/09 01:32:08;;;;;;;41.2;19.6;;;;;;;-2.58;87.57;;;;;
2023/12/09 01:42:09;;;;;;;41.2;19.6;;;;;;;-2.53;87.2;;;;;
2023/12/09 01:53:08;;;;;;;41.2;19.6;;;;;;;-2.72;86.82;;;;;
2023/12/09 02:04:08;;;;;;;27;16.6;;;;;;;-2.72;87.14;;;;;
2023/12/09 02:15:08;;;;;;;27;16.6;;;;;;;-2.95;87.12;;;;;
2023/12/09 02:25:08;;;;;;;27;16.6;;;;;;;-2.93;87.48;;;;;
2023/12/09 02:35:08;;;;;;;41.5;20.2;;;;;;;-3;86.59;;;;;
2023/12/09 02:46:08;;;;;;;41.5;20.2;;;;;;;-3.13;87.28;;;;;
2023/12/09 02:57:08;;;;;;;40.1;20.8;;;;;;;-3.36;86.55;;;;;
2023/12/09 03:08:08;;;;;;;40.1;20.8;;;;;;;-3.74;87.85;;;;;
2023/12/09 03:18:08;;;;;;;40.1;20.8;;;;;;;-3.82;87.64;;;;;
2023/12/09 03:28:08;;;;;;;25.8;13.6;;;;;;;-3.61;88.02;;;;;
2023/12/09 03:39:09;;;;;;;25.8;13.6;;;;;;;-3.49;88.03;;;;;
2023/12/09 03:49:08;;;;;;;25.8;13.6;;;;;;;-3.49;87.87;;;;;
2023/12/09 03:59:09;;;;;;;28.8;14.2;;;;;;;-3.48;87.79;;;;;
2023/12/09 04:10:09;;;;;;;28.8;14.2;;;;;;;-3.44;87.74;;;;;
2023/12/09 04:20:09;;;;;;;28.8;14.2;;;;;;;-3.38;86.97;;;;;
2023/12/09 04:31:09;;;;;;;36;17.2;;;;;;;-3.63;87.37;;;;;
2023/12/09 04:42:09;;;;;;;36;17.2;;;;;;;-3.66;87.6;;;;;
2023/12/09 04:53:09;;;;;;;36;17.2;;;;;;;-3.87;87.16;;;;;
2023/12/09 05:04:09;;;;;;;33.4;18;;;;;;;-3.94;86.57;;;;;
2023/12/09 05:14:09;;;;;;;33.4;18;;;;;;;-3.94;86.72;;;;;
2023/12/09 05:25:08;;;;;;;33.4;18;;;;;;;-4.11;85.97;;;;;
2023/12/09 05:35:10;;;;;;;27.3;15.1;;;;;;;-4.27;86.04;;;;;
2023/12/09 05:46:08;;;;;;;27.3;15.1;;;;;;;-4.16;86.4;;;;;
2023/12/09 05:57:08;;;;;;;26.5;15.9;;;;;;;-4.21;86.22;;;;;
2023/12/09 06:07:09;;;;;;;26.5;15.9;;;;;;;-4.12;86.91;;;;;
2023/12/09 06:17:09;;;;;;;26.5;15.9;;;;;;;-4.33;87.98;;;;;
2023/12/09 06:28:08;;;;;;;35.8;20.4;;;;;;;-4.31;88.05;;;;;
2023/12/09 06:38:09;;;;;;;35.8;20.4;;;;;;;-4.26;88.22;;;;;
2023/12/09 06:49:09;;;;;;;35.8;20.4;;;;;;;-3.89;87.98;;;;;
2023/12/09 06:59:09;;;;;;;29;16.1;;;;;;;-3.72;87.35;;;;;
2023/12/09 07:09:09;;;;;;;29;16.1;;;;;;;-3.66;87.99;;;;;
2023/12/09 07:20:09;;;;;;;29;16.1;;;;;;;-3.58;86.92;;;;;
2023/12/09 07:30:09;;;;;;;33.5;18;;;;;;;-3.3;86.51;;;;;
2023/12/09 07:40:11;;;;;;;33.5;18;;;;;;;-2.88;86.85;;;;;
2023/12/09 07:51:09;;;;;;;33.5;18;;;;;;;-2.21;86.89;;;;;
2023/12/09 08:02:09;;;;;;;45.8;23.7;;;;;;;-2.05;83.84;;;;;
2023/12/09 08:13:09;;;;;;;45.8;23.7;;;;;;;-1.58;84.1;;;;;
2023/12/09 08:24:09;;;;;;;45.8;23.7;;;;;;;-1.11;83.94;;;;;
2023/12/09 08:34:09;;;;;;;37.7;20.8;;;;;;;-1.04;80.25;;;;;
2023/12/09 08:44:09;;;;;;;37.7;20.8;;;;;;;-0.45;81.99;;;;;
2023/12/09 08:55:09;;;;;;;42.2;21.2;;;;;;;-0.47;79.93;;;;;
2023/12/09 09:05:09;;;;;;;42.2;21.2;;;;;;;-0.48;79.9;;;;;
2023/12/09 09:16:09;;;;;;;42.2;21.2;;;;;;;-0.06;80.16;;;;;
2023/12/09 09:26:09;;;;;;;39.2;21;;;;;;;-0.29;79.27;;;;;
2023/12/09 09:36:09;;;;;;;39.2;21;;;;;;;-0.06;79.71;;;;;
2023/12/09 09:47:09;;;;;;;39.2;21;;;;;;;0.66;80.1;;;;;
2023/12/09 09:57:09;;;;;;;44.5;24.8;;;;;;;0.87;80.07;;;;;
2023/12/09 10:08:09;;;;;;;44.5;24.8;;;;;;;1.19;77.79;;;;;
2023/12/09 10:19:09;;;;;;;44.5;24.8;;;;;;;1.69;77.1;;;;;
2023/12/09 10:29:09;;;;;;;45.4;24.4;;;;;;;2.01;76.49;;;;;
2023/12/09 10:40:09;;;;;;;45.4;24.4;;;;;;;1.62;74.69;;;;;
2023/12/09 10:51:09;;;;;;;45.4;24.4;;;;;;;1.99;76.31;;;;;
2023/12/09 11:02:11;;;;;;;46;28.5;;;;;;;1.43;76.37;;;;;
2023/12/09 11:12:09;;;;;;;46;28.5;;;;;;;1.97;79.75;;;;;
2023/12/09 11:23:10;;;;;;;46;28.5;;;;;;;1.79;78.72;;;;;
2023/12/09 11:33:09;;;;;;;51.1;28.1;;;;;;;2.06;77.94;;;;;
2023/12/09 11:44:09;;;;;;;51.1;28.1;;;;;;;2.24;79.22;;;;;
2023/12/09 11:54:09;;;;;;;51.1;28.1;;;;;;;2.33;77.54;;;;;
2023/12/09 12:05:09;;;;;;;48.1;29.4;;;;;;;2.12;78.79;;;;;
2023/12/09 12:15:09;;;;;;;48.1;29.4;;;;;;;2.17;77.63;;;;;
2023/12/09 12:26:09;;;;;;;58;31.8;;;;;;;2.06;79.63;;;;;
2023/12/09 12:36:09;;;;;;;58;31.8;;;;;;;2.23;80.29;;;;;
2023/12/09 12:47:09;;;;;;;58;31.8;;;;;;;2.38;82.08;;;;;
2023/12/09 12:57:09;;;;;;;51.9;30.8;;;;;;;2.14;80;;;;;
2023/12/09 13:07:09;;;;;;;51.9;30.8;;;;;;;1.97;80.33;;;;;
2023/12/09 13:17:09;;;;;;;51.9;30.8;;;;;;;1.87;80.5;;;;;
2023/12/09 13:28:09;;;;;;;52.6;30.6;;;;;;;1.83;81.54;;;;;
2023/12/09 13:39:11;;;;;;;52.6;30.6;;;;;;;1.7;81.21;;;;;
2023/12/09 13:49:09;;;;;;;52.6;30.6;;;;;;;1.63;82.58;;;;;
2023/12/09 14:00:10;;;;;;;54.9;30.6;;;;;;;1.52;82;;;;;
2023/12/09 14:10:09;;;;;;;54.9;30.6;;;;;;;1.46;83.58;;;;;
2023/12/09 14:21:09;;;;;;;54.9;30.6;;;;;;;1.34;83.72;;;;;
2023/12/09 14:32:09;;;;;;;50.5;28.6;;;;;;;1.15;82.55;;;;;
2023/12/09 14:42:09;;;;;;;50.5;28.6;;;;;;;1.16;84.26;;;;;
2023/12/09 14:52:11;;;;;;;50.5;28.6;;;;;;;0.75;83.07;;;;;
2023/12/09 15:02:09;;;;;;;43.7;22.7;;;;;;;0.76;84.06;;;;;
2023/12/09 15:13:09;;;;;;;43.7;22.7;;;;;;;0.64;83.8;;;;;
2023/12/09 15:23:09;;;;;;;43.7;22.7;;;;;;;0.56;85.39;;;;;
2023/12/09 15:34:09;;;;;;;64.8;35.1;;;;;;;0.32;84.59;;;;;
2023/12/09 15:44:09;;;;;;;64.8;35.1;;;;;;;0.39;86.32;;;;;
2023/12/09 15:55:09;;;;;;;60.3;32.7;;;;;;;0.3;86.34;;;;;
2023/12/09 16:06:09;;;;;;;60.3;32.7;;;;;;;0.16;87.02;;;;;
2023/12/09 16:17:10;;;;;;;60.3;32.7;;;;;;;0.1;86.61;;;;;
2023/12/09 16:28:09;;;;;;;52.2;30;;;;;;;0.1;88;;;;;
2023/12/09 16:39:09;;;;;;;52.2;30;;;;;;;-0.17;85.88;;;;;
2023/12/09 16:50:09;;;;;;;52.2;30;;;;;;;0;88.98;;;;;
2023/12/09 17:01:09;;;;;;;55.4;32;;;;;;;0.01;88.17;;;;;
2023/12/09 17:11:09;;;;;;;55.4;32;;;;;;;0.14;89;;;;;
2023/12/09 17:22:09;;;;;;;55.4;32;;;;;;;0.25;88.71;;;;;
2023/12/09 17:32:09;;;;;;;75.9;41.3;;;;;;;0.25;88.76;;;;;
2023/12/09 17:42:09;;;;;;;75.9;41.3;;;;;;;0.39;89.25;;;;;
2023/12/09 17:53:09;;;;;;;75.9;41.3;;;;;;;0.4;89.46;;;;;
2023/12/09 18:03:09;;;;;;;67.2;35.5;;;;;;;0.12;86.28;;;;;
2023/12/09 18:13:12;;;;;;;67.2;35.5;;;;;;;0.12;88.08;;;;;
2023/12/09 18:24:09;;;;;;;69.1;40.7;;;;;;;0.25;87.58;;;;;
2023/12/09 18:34:09;;;;;;;69.1;40.7;;;;;;;0.26;88.81;;;;;
2023/12/09 18:44:09;;;;;;;69.1;40.7;;;;;;;0.17;88.39;;;;;
2023/12/09 18:55:09;;;;;;;69.2;41.8;;;;;;;-0.16;87.64;;;;;
2023/12/09 19:06:09;;;;;;;69.2;41.8;;;;;;;-0.28;88.8;;;;;
2023/12/09 19:16:09;;;;;;;69.2;41.8;;;;;;;-0.36;89.09;;;;;
2023/12/09 19:26:09;;;;;;;75.8;40.3;;;;;;;-0.67;88.07;;;;;
2023/12/09 19:36:09;;;;;;;75.8;40.3;;;;;;;-0.76;89.27;;;;;
2023/12/09 19:47:09;;;;;;;75.8;40.3;;;;;;;-0.73;89.47;;;;;
2023/12/09 19:57:09;;;;;;;66.5;38.7;;;;;;;-0.89;89.34;;;;;
2023/12/09 20:07:09;;;;;;;66.5;38.7;;;;;;;-1.1;89.25;;;;;
2023/12/09 20:18:09;;;;;;;66.5;38.7;;;;;;;-1.45;88.48;;;;;
2023/12/09 20:28:09;;;;;;;77.1;46;;;;;;;-1.78;87.83;;;;;
2023/12/09 20:39:10;;;;;;;77.1;46;;;;;;;-2.14;87.72;;;;;
2023/12/09 20:49:10;;;;;;;77.1;46;;;;;;;-2.54;87.49;;;;;
2023/12/09 21:00:10;;;;;;;88.1;47.1;;;;;;;-3.07;87.63;;;;;
2023/12/09 21:10:09;;;;;;;88.1;47.1;;;;;;;-3.47;88.05;;;;;
2023/12/09 21:21:09;;;;;;;88.1;47.1;;;;;;;-3.82;88.5;;;;;
2023/12/09 21:32:09;;;;;;;79.9;47;;;;;;;-4.05;88.5;;;;;
2023/12/09 21:42:09;;;;;;;79.9;47;;;;;;;-4.28;88.36;;;;;
2023/12/09 21:53:09;;;;;;;74.2;41.5;;;;;;;-4.42;89.21;;;;;
2023/12/09 22:04:09;;;;;;;74.2;41.5;;;;;;;-4.58;88.86;;;;;
2023/12/09 22:15:09;;;;;;;74.2;41.5;;;;;;;-4.85;88.4;;;;;
2023/12/09 22:25:10;;;;;;;69.7;41.9;;;;;;;-4.96;88.79;;;;;
2023/12/09 22:36:09;;;;;;;69.7;41.9;;;;;;;-4.93;89.38;;;;;
2023/12/09 22:46:09;;;;;;;69.7;41.9;;;;;;;-5.16;88.91;;;;;
2023/12/09 22:56:09;;;;;;;68.6;38.7;;;;;;;-5.2;88.61;;;;;
2023/12/09 23:07:09;;;;;;;68.6;38.7;;;;;;;-5.15;88.86;;;;;
2023/12/09 23:17:09;;;;;;;68.6;38.7;;;;;;;-5.19;88.52;;;;;
2023/12/09 23:28:10;;;;;;;61.9;34.9;;;;;;;-5.3;88.72;;;;;
2023/12/09 23:38:09;;;;;;;61.9;34.9;;;;;;;-5.29;88.9;;;;;
2023/12/09 23:49:09;;;;;;;61.9;34.9;;;;;;;-5.21;88.73;;;;;
